ADDS METAR Data INFO
IDs: Format: Raw Decoded Include TAF

Data at: 2110 UTC 19 Jul 2018

KTQH 192055Z AUTO 20004KT 10SM CLR 38/21 A2985 RMK AO2
KTQH 192035Z AUTO 20004KT 10SM CLR 38/21 A2986 RMK AO2
KTQH 192015Z AUTO 00000KT 10SM CLR 38/22 A2986 RMK AO2
KTQH 191955Z AUTO 00000KT 10SM CLR 38/22 A2986 RMK AO2
KTQH 191935Z AUTO 00000KT 10SM CLR 37/22 A2986 RMK AO2
KTQH 191915Z AUTO 00000KT 10SM CLR 36/21 A2987 RMK AO2
KTQH 191855Z AUTO 00000KT 10SM CLR 36/21 A2987 RMK AO2
KTQH 191835Z AUTO 00000KT 10SM CLR 35/22 A2987 RMK AO2
KTQH 191815Z AUTO 19003KT 10SM CLR 35/21 A2988 RMK AO2
KTQH 191755Z AUTO 00000KT 10SM CLR 34/21 A2988 RMK AO2
KTQH 191735Z AUTO 00000KT 10SM CLR 33/21 A2988 RMK AO2
KTQH 191715Z AUTO 24004KT 10SM CLR 33/21 A2989 RMK AO2
KTQH 191655Z AUTO 21003KT 10SM CLR 33/21 A2989 RMK AO2
KTQH 191635Z AUTO 21004KT 10SM CLR 32/22 A2989 RMK AO2
KTQH 191615Z AUTO 25003KT 10SM CLR 32/22 A2989 RMK AO2
KTQH 191555Z AUTO 21004KT 10SM CLR 31/22 A2989 RMK AO2
KTQH 191535Z AUTO 20005KT 10SM CLR 31/22 A2989 RMK AO2
KTQH 191515Z AUTO 18005KT 10SM CLR 30/22 A2989 RMK AO2
KTQH 191455Z AUTO 19006KT 10SM CLR 30/22 A2990 RMK AO2
KTQH 191435Z AUTO 15004KT 10SM CLR 29/23 A2991 RMK AO2
KTQH 191415Z AUTO 00000KT 10SM CLR 28/23 A2991 RMK AO2
KTQH 191355Z AUTO 00000KT 10SM CLR 27/24 A2991 RMK AO2
KTQH 191335Z AUTO 00000KT 10SM CLR 26/25 A2991 RMK AO2
KTQH 191315Z AUTO 00000KT 7SM CLR 25/24 A2990 RMK AO2
KTQH 191255Z AUTO 13003KT 10SM CLR 24/23 A2990 RMK AO2
KTQH 191235Z AUTO 00000KT 10SM CLR 24/23 A2990 RMK AO2
KTQH 191215Z AUTO 00000KT 7SM CLR 23/22 A2990 RMK AO2
KTQH 191155Z AUTO 00000KT 7SM CLR 22/22 A2990 RMK AO2
KTQH 191135Z AUTO 00000KT 7SM CLR 22/22 A2991 RMK AO2
KTQH 191115Z AUTO 00000KT 5SM BR CLR 22/22 A2990 RMK AO2
KTQH 191055Z AUTO 00000KT 7SM CLR 22/22 A2990 RMK AO2
KTQH 191035Z AUTO 00000KT 7SM CLR 22/22 A2990 RMK AO2
KTQH 191015Z AUTO 00000KT 7SM CLR 22/22 A2990 RMK AO2
KTQH 190955Z AUTO 00000KT 7SM CLR 22/22 A2990 RMK AO2
KTQH 190935Z AUTO 00000KT 7SM CLR 22/22 A2990 RMK AO2
KTQH 190915Z AUTO 09003KT 5SM BR CLR 22/22 A2990 RMK AO2
KTQH 190855Z AUTO 00000KT 5SM BR CLR 22/22 A2991 RMK AO2
KTQH 190835Z AUTO 00000KT 5SM BR CLR 22/22 A2991 RMK AO2
KTQH 190815Z AUTO 00000KT 7SM CLR 22/22 A2991 RMK AO2
KTQH 190755Z AUTO 00000KT 7SM CLR 22/22 A2991 RMK AO2
KTQH 190735Z AUTO 00000KT 7SM CLR 22/22 A2992 RMK AO2
KTQH 190715Z AUTO 00000KT 7SM CLR 22/22 A2992 RMK AO2
KTQH 190655Z AUTO 00000KT 7SM CLR 22/22 A2993 RMK AO2
KTQH 190635Z AUTO 00000KT 7SM CLR 22/22 A2993 RMK AO2
KTQH 190615Z AUTO 00000KT 7SM CLR 22/22 A2994 RMK AO2
KTQH 190555Z AUTO 00000KT 7SM CLR 22/22 A2994 RMK AO2
KTQH 190535Z AUTO 00000KT 7SM CLR 22/22 A2994 RMK AO2
KTQH 190515Z AUTO 00000KT 7SM CLR 23/22 A2994 RMK AO2
KTQH 190455Z AUTO 00000KT 7SM CLR 23/22 A2994 RMK AO2
KTQH 190435Z AUTO 00000KT 7SM CLR 23/22 A2993 RMK AO2
KTQH 190415Z AUTO 00000KT 10SM CLR 23/22 A2993 RMK AO2
KTQH 190355Z AUTO 00000KT 10SM CLR 23/22 A2993 RMK AO2
KTQH 190335Z AUTO 00000KT 10SM CLR 23/22 A2994 RMK AO2
KTQH 190315Z AUTO 00000KT 10SM CLR 23/22 A2993 RMK AO2
KTQH 190255Z AUTO 00000KT 10SM CLR 23/22 A2993 RMK AO2
KTQH 190235Z AUTO 00000KT 10SM CLR 24/22 A2993 RMK AO2
KTQH 190215Z AUTO 00000KT 10SM CLR 25/22 A2992 RMK AO2
KTQH 190155Z AUTO 00000KT 10SM CLR 26/22 A2991 RMK AO2
KTQH 190135Z AUTO 00000KT 10SM CLR 27/22 A2991 RMK AO2
KTQH 190115Z AUTO 00000KT 10SM CLR 27/22 A2991 RMK AO2
KTQH 190055Z AUTO 17003KT 10SM CLR 27/22 A2991 RMK AO2
KTQH 190035Z AUTO 00000KT 10SM CLR 28/22 A2991 RMK AO2
KTQH 190015Z AUTO 00000KT 10SM CLR 30/22 A2991 RMK AO2
KTQH 182355Z AUTO 00000KT 10SM CLR 28/22 A2992 RMK AO2
KTQH 182335Z AUTO 00000KT 10SM CLR 28/22 A2991 RMK AO2
KTQH 182315Z AUTO 23003KT 10SM CLR 29/22 A2992 RMK AO2
KTQH 182255Z AUTO 19003KT 10SM CLR 30/21 A2991 RMK AO2
KTQH 182235Z AUTO 23003KT 10SM CLR 29/22 A2992 RMK AO2
KTQH 182215Z AUTO 21004KT 10SM CLR 29/22 A2993 RMK AO2
KTQH 182155Z AUTO 00000KT 10SM CLR 29/22 A2993 RMK AO2
KTQH 182135Z AUTO 00000KT 10SM CLR 30/22 A2994 RMK AO2
KTQH 182115Z AUTO 15005KT 10SM CLR 30/22 A2993 RMK AO2
KTQH 182055Z AUTO 16005KT 10SM CLR 30/22 A2994 RMK AO2
KTQH 182035Z AUTO 15004KT 10SM CLR 29/22 A2995 RMK AO2
KTQH 182015Z AUTO 11004KT 10SM CLR 28/22 A2996 RMK AO2
KTQH 181955Z AUTO 13004KT 10SM CLR 27/22 A2996 RMK AO2
KTQH 181935Z AUTO 00000KT 10SM CLR 27/22 A2997 RMK AO2
KTQH 181915Z AUTO 20004KT 10SM CLR 27/22 A2998 RMK AO2
KTQH 181855Z AUTO 00000KT 10SM CLR 27/22 A2998 RMK AO2
KTQH 181835Z AUTO 14004KT 10SM CLR 27/22 A2998 RMK AO2
KTQH 181815Z AUTO 00000KT 10SM CLR 27/22 A2998 RMK AO2
KTQH 181755Z AUTO 13003KT 10SM CLR 27/22 A2998 RMK AO2
KTQH 181735Z AUTO 13004KT 10SM CLR 28/22 A2998 RMK AO2
KTQH 181715Z AUTO 14005KT 10SM CLR 27/22 A2998 RMK AO2
KTQH 181655Z AUTO 15006KT 10SM CLR 27/22 A2998 RMK AO2
KTQH 181635Z AUTO 14007KT 10SM CLR 27/22 A2999 RMK AO2
KTQH 181615Z AUTO 16004KT 10SM CLR 27/22 A2999 RMK AO2
KTQH 181555Z AUTO 14003KT 10SM CLR 26/22 A2999 RMK AO2
KTQH 181535Z AUTO 14003KT 10SM CLR 26/22 A2999 RMK AO2
KTQH 181515Z AUTO 17004KT 10SM CLR 25/22 A2999 RMK AO2
KTQH 181455Z AUTO 13006KT 10SM CLR 24/22 A2999 RMK AO2
KTQH 181435Z AUTO 00000KT 10SM CLR 23/22 A3000 RMK AO2
KTQH 181415Z AUTO 00000KT 10SM CLR 24/22 A3000 RMK AO2
KTQH 181355Z AUTO 00000KT 10SM CLR 24/21 A3001 RMK AO2
KTQH 181335Z AUTO 00000KT 10SM CLR 24/21 A3001 RMK AO2
KTQH 181315Z AUTO 10003KT 10SM CLR 23/21 A3000 RMK AO2
KTQH 181255Z AUTO 00000KT 10SM CLR 23/22 A3000 RMK AO2
KTQH 181235Z AUTO 10003KT 10SM CLR 22/22 A2999 RMK AO2
KTQH 181215Z AUTO 00000KT 10SM CLR 22/21 A2999 RMK AO2
KTQH 181155Z AUTO 00000KT 10SM CLR 22/21 A2999 RMK AO2
KTQH 181135Z AUTO 00000KT 10SM CLR 22/21 A2999 RMK AO2
KTQH 181115Z AUTO 00000KT 10SM CLR 22/21 A2999 RMK AO2
KTQH 181055Z AUTO 00000KT 10SM CLR 22/21 A2998 RMK AO2
KTQH 181035Z AUTO 00000KT 10SM CLR 22/21 A2998 RMK AO2
KTQH 181015Z AUTO 05003KT 10SM CLR 22/21 A2998 RMK AO2
KTQH 180955Z AUTO 00000KT 7SM SCT003 SCT007 SCT014 22/21 A2998 RMK AO2 P0006
KTQH 180935Z AUTO 00000KT 3SM HZ SCT009 SCT014 23/20 A2999 RMK AO2 P0002
KTQH 180915Z AUTO 00000KT 10SM CLR 23/20 A2999 RMK AO2